Langley, Canada
Current Conditions -  °F | °C
As of 9:00 AM on Saturday 20 Dec 2014 (Local Time) from CYXX Reporting Station
Light Rain Light Rain  
Wind Chill: 36°   Ceiling: 3000
Heat Index: 41°   Visibility: 8mi
Dew Point: 41°   Wind: 7mph
Humidity: 100%   Direction: 50°NE
Pressure: 29.64"   Gusts: NA
Location:  49.1°N, 122.65°W
Report Text: CYXX 201700Z 05006KT 010V080 8SM -RA FEW015 BKN030 OVC060 05/05 A2964 RMK SF2SC4SC2 SLP038
Loading
Personal Weather Stations






























Interactive Weather Map New forecast layout! Learn more

10-Day Weather Forecast

Advertisements
Track Severe Weather on mobile